Greenville, AL

8:18 AM CST on December 03, 2016 (GMT -0600)
Greenville Municipal | | Change Station

Elev 449 ft 31.85 °N, 86.61 °W | Updated 22 minutes ago

Mostly Cloudy
Mostly Cloudy
55 °F
Feels Like 55 °F
N
10
Wind Variable Wind from ENE

Today
High -- | Low -- °F
--% Chance of Precip.
Yesterday
High -- | Low -- °F
Precip. -- in
Pressure 30.24 in
Visibility 10.0 miles
Clouds Mostly Cloudy 9500 ft
Dew Point 31 °F
Humidity 40%
Rainfall 0.00 in
Snow Depth Not available.
6:30 AM 4:42 PM
Waxing Crescent, 15% visible
METAR KPRN 031356Z AUTO 06009KT 10SM BKN095 13/M01 A3024 RMK AO2 SLP238 T01281006
Pressure 30.24 in
Visibility 10.0 miles
Clouds Mostly Cloudy 9500 ft
Dew Point 31 °F
Humidity 40%
Rainfall 0.00 in
Snow Depth Not available.
6:30 AM 4:42 PM
Waxing Crescent, 15% visible
METAR KPRN 031356Z AUTO 06009KT 10SM BKN095 13/M01 A3024 RMK AO2 SLP238 T01281006

10-Day Weather Forecast

Almanac

Astronomy

Dec. 03, 2016 Rise Set
Actual Time
Civil Twilight
Nautical Twilight
Astronomical Twilight
Moon
Length of Visible Light
Length of Day
Tomorrow will be .
, % of the Moon is Illuminated

Today's Extremes

State Highs State Lows

Community

WunderPhotos

Upload Photos

1,955,446 photos uploaded!

WunderBlog® & News

Nearby

Air Quality

  Air Quality AQ Index Pollutant
Not available.

Snow Depth

Station Depth Elevation

Earthquake Activity

City Distance Mag. Time & Date
Minimum magnitude displayed is 2.5.

Coastal Water Temperatures

Place Temperature

Stations

Nearby Weather Stations

Station Location Temp. Windchill Dew Point Humidity Wind Precip. Elev Updated Type
                   

Watches & Warnings

There are currently no watches in effect.